createdAt,value
2018-05-03T00:00:44.780Z,99203.66
2018-05-03T00:03:14.417Z,99206.90
2018-05-03T00:05:44.046Z,99204.61
2018-05-03T00:08:13.672Z,99194.86
2018-05-03T00:10:43.310Z,99202.97
2018-05-03T00:13:12.987Z,99200.00
2018-05-03T00:15:42.616Z,99196.89
2018-05-03T00:18:12.249Z,99192.70
2018-05-03T00:20:41.885Z,99191.63
2018-05-03T00:23:11.515Z,99190.42
2018-05-03T00:25:41.196Z,99184.18
2018-05-03T00:28:10.840Z,99182.94
2018-05-03T00:30:40.497Z,99177.92
2018-05-03T00:33:10.137Z,99178.33
2018-05-03T00:35:39.766Z,99175.91
2018-05-03T00:38:09.476Z,99175.09
2018-05-03T00:40:39.095Z,99167.80
2018-05-03T00:43:08.735Z,99168.03
2018-05-03T00:45:38.086Z,99172.08
2018-05-03T00:48:07.725Z,99170.27
2018-05-03T00:50:37.406Z,99170.30
2018-05-03T00:53:07.035Z,99170.84
2018-05-03T00:55:36.664Z,99170.41
2018-05-03T00:58:06.304Z,99170.77
2018-05-03T01:00:36.028Z,99175.28
2018-05-03T01:03:05.086Z,99170.92
2018-05-03T01:05:34.712Z,99170.30
2018-05-03T01:08:04.377Z,99168.63
2018-05-03T01:10:34.018Z,99175.95
2018-05-03T01:13:03.687Z,99173.64
2018-05-03T01:15:33.373Z,99173.25
2018-05-03T01:18:03.006Z,99169.97
2018-05-03T01:20:32.392Z,99172.84
2018-05-03T01:23:02.040Z,99179.63
2018-05-03T01:25:31.683Z,99180.51
2018-05-03T01:28:01.370Z,99177.04
2018-05-03T01:30:31.005Z,99181.15
2018-05-03T01:33:00.641Z,99185.70
2018-05-03T01:35:41.149Z,99184.31
2018-05-03T01:38:10.509Z,99184.62
2018-05-03T01:40:40.192Z,99180.38
2018-05-03T01:43:09.835Z,99182.30
2018-05-03T01:45:39.663Z,99176.28
2018-05-03T01:48:09.293Z,99175.05
2018-05-03T01:50:38.928Z,99176.44
2018-05-03T01:53:08.591Z,99196.28
2018-05-03T01:55:38.220Z,99212.98
2018-05-03T01:58:07.856Z,99196.20
2018-05-03T02:00:37.212Z,99225.09
2018-05-03T02:03:06.598Z,99213.97
2018-05-03T02:05:36.271Z,99226.91
2018-05-03T02:08:05.921Z,99216.61
2018-05-03T02:10:35.545Z,99215.23
2018-05-03T02:13:05.180Z,99226.23
2018-05-03T02:15:34.815Z,99228.92
2018-05-03T02:18:04.495Z,99230.31
2018-05-03T02:20:34.119Z,99226.84
2018-05-03T02:23:03.750Z,99226.74
2018-05-03T02:25:33.382Z,99217.06
2018-05-03T02:28:03.027Z,99214.22
2018-05-03T02:30:32.791Z,99207.77
2018-05-03T02:33:02.444Z,99204.38
2018-05-03T02:35:32.088Z,99196.83
2018-05-03T02:38:01.708Z,99199.59
2018-05-03T02:40:31.379Z,99200.78
2018-05-03T02:43:01.061Z,99195.11
2018-05-03T02:45:30.694Z,99197.23
2018-05-03T02:48:00.336Z,99197.88
2018-05-03T02:50:29.721Z,99200.63
2018-05-03T02:52:59.346Z,99197.69
2018-05-03T02:55:29.030Z,99202.51
2018-05-03T02:58:15.228Z,99204.62
2018-05-03T03:04:22.459Z,99172.30
2018-05-03T03:07:08.504Z,99175.45
2018-05-03T03:13:34.452Z,99179.11
2018-05-03T03:16:20.526Z,99183.02
2018-05-03T03:19:06.527Z,99183.75
2018-05-03T03:24:59.827Z,99176.84
2018-05-03T03:27:56.812Z,99184.39
2018-05-03T03:30:44.388Z,99174.11
2018-05-03T03:33:24.963Z,99168.39
2018-05-03T03:36:05.498Z,99160.05
2018-05-03T03:38:46.056Z,99159.56
2018-05-03T03:41:26.585Z,99146.50
2018-05-03T03:44:07.129Z,99147.20
2018-05-03T03:46:36.485Z,99153.50
2018-05-03T03:49:05.879Z,99160.33
2018-05-03T03:51:35.517Z,99157.61
2018-05-03T03:54:05.141Z,99150.36
2018-05-03T03:56:34.771Z,99155.65
2018-05-03T03:59:04.417Z,99161.53
2018-05-03T04:01:34.106Z,99161.66
2018-05-03T04:04:03.731Z,99168.41
2018-05-03T04:06:33.369Z,99173.39
2018-05-03T04:09:02.993Z,99175.19
2018-05-03T04:11:32.620Z,99179.45
2018-05-03T04:14:02.311Z,99177.08
2018-05-03T04:16:31.938Z,99170.54
2018-05-03T04:19:12.942Z,99184.05
2018-05-03T04:21:53.636Z,99179.12
2018-05-03T04:24:34.211Z,99169.86
2018-05-03T04:27:03.583Z,99170.97
2018-05-03T04:29:33.216Z,99174.65
2018-05-03T04:32:02.862Z,99178.17
2018-05-03T04:34:32.497Z,99183.97
2018-05-03T04:37:02.398Z,99193.82
2018-05-03T04:39:32.019Z,99206.11
2018-05-03T04:42:01.669Z,99190.51
2018-05-03T04:44:31.301Z,99183.94
2018-05-03T04:47:00.936Z,99194.67
2018-05-03T04:49:30.620Z,99202.38
2018-05-03T04:52:00.255Z,99202.81
2018-05-03T04:54:29.899Z,99214.03
2018-05-03T04:56:59.537Z,99217.04
2018-05-03T04:59:29.169Z,99214.36
2018-05-03T05:01:58.857Z,99218.33
2018-05-03T05:04:28.493Z,99224.09
2018-05-03T05:06:58.159Z,99223.55
2018-05-03T05:09:27.794Z,99230.02
2018-05-03T05:11:57.435Z,99234.45
2018-05-03T05:14:27.113Z,99243.97
2018-05-03T05:16:56.749Z,99248.84
2018-05-03T05:19:26.393Z,99251.02
2018-05-03T05:21:56.025Z,99250.61
2018-05-03T05:24:25.650Z,99251.92
2018-05-03T05:26:55.919Z,99253.89
2018-05-03T05:29:26.152Z,99266.41
2018-05-03T05:31:56.412Z,99262.27
2018-05-03T05:34:26.634Z,99268.18
2018-05-03T05:36:56.980Z,99265.82
2018-05-03T05:39:27.207Z,99272.07
2018-05-03T05:41:57.468Z,99265.90
2018-05-03T05:44:27.683Z,99269.99
2018-05-03T05:46:57.939Z,99268.01
2018-05-03T05:49:28.165Z,99273.73
2018-05-03T05:51:58.438Z,99266.54
2018-05-03T05:54:28.702Z,99276.95
2018-05-03T05:56:58.339Z,99268.13
2018-05-03T05:59:27.734Z,99264.88
2018-05-03T06:01:57.374Z,99264.09
2018-05-03T06:04:27.005Z,99269.72
2018-05-03T06:06:56.400Z,99263.71
2018-05-03T06:09:25.774Z,99270.88
2018-05-03T06:11:55.406Z,99273.17
2018-05-03T06:14:25.035Z,99277.27
2018-05-03T06:16:54.655Z,99274.02
2018-05-03T06:19:24.356Z,99272.03
2018-05-03T06:21:53.992Z,99269.45
2018-05-03T06:24:23.397Z,99274.63
2018-05-03T06:26:53.621Z,99274.36
2018-05-03T06:29:23.841Z,99271.67
2018-05-03T06:31:53.513Z,99276.78
2018-05-03T06:34:23.187Z,99277.18
2018-05-03T06:36:53.423Z,99269.70
2018-05-03T06:39:23.646Z,99283.09
2018-05-03T06:41:53.883Z,99285.63
2018-05-03T06:44:24.148Z,99295.43
2018-05-03T06:46:53.504Z,99290.13
2018-05-03T06:49:23.149Z,99284.94
2018-05-03T06:51:53.403Z,99291.64
2018-05-03T06:54:23.626Z,99287.80
2018-05-03T06:56:53.897Z,99284.04
2018-05-03T06:59:24.126Z,99283.73
2018-05-03T07:01:54.383Z,99282.02
2018-05-03T07:04:24.636Z,99281.57
2018-05-03T07:06:55.111Z,99288.83
2018-05-03T07:09:25.334Z,99288.54
2018-05-03T07:11:55.593Z,99291.52
2018-05-03T07:14:25.837Z,99295.95
2018-05-03T07:16:56.045Z,99293.98
2018-05-03T07:19:26.287Z,99292.98
2018-05-03T07:21:56.500Z,99292.02
2018-05-03T07:24:26.742Z,99297.33
2018-05-03T07:26:56.965Z,99295.43
2018-05-03T07:29:27.228Z,99292.95
2018-05-03T07:31:57.700Z,99298.39
2018-05-03T07:34:27.911Z,99302.70
2018-05-03T07:36:58.214Z,99309.28
2018-05-03T07:39:28.426Z,99313.91
2018-05-03T07:41:58.669Z,99307.37
2018-05-03T07:44:29.308Z,99306.88
2018-05-03T07:46:59.533Z,99310.95
2018-05-03T07:49:29.790Z,99310.03
2018-05-03T07:52:00.016Z,99309.11
2018-05-03T07:54:30.280Z,99300.55
2018-05-03T07:57:00.503Z,99304.24
2018-05-03T07:59:30.735Z,99300.48
2018-05-03T08:02:00.976Z,99297.70
2018-05-03T08:04:31.396Z,99291.33
2018-05-03T08:07:01.665Z,99297.32
2018-05-03T08:09:31.882Z,99298.09
2018-05-03T08:12:02.135Z,99307.13
2018-05-03T08:14:32.578Z,99312.86
2018-05-03T08:17:02.919Z,99316.17
2018-05-03T08:19:33.298Z,99332.61
2018-05-03T08:22:03.541Z,99323.05
2018-05-03T08:24:33.532Z,99321.46
2018-05-03T08:27:03.759Z,99322.80
2018-05-03T08:29:34.016Z,99316.46
2018-05-03T08:32:04.223Z,99321.53
2018-05-03T08:34:34.203Z,99320.67
2018-05-03T08:37:04.465Z,99323.66
2018-05-03T08:39:34.679Z,99320.87
2018-05-03T08:42:04.587Z,99324.56
2018-05-03T08:44:34.813Z,99322.84
2018-05-03T08:47:05.030Z,99323.30
2018-05-03T08:49:35.297Z,99329.48
2018-05-03T08:52:04.984Z,99335.64
2018-05-03T08:54:35.213Z,99334.50
2018-05-03T08:57:05.216Z,99334.28
2018-05-03T08:59:35.440Z,99331.47
2018-05-03T09:02:05.513Z,99334.18
2018-05-03T09:04:35.733Z,99341.28
2018-05-03T09:07:05.741Z,99327.09
2018-05-03T09:09:36.093Z,99333.75
2018-05-03T09:12:06.305Z,99334.92
2018-05-03T09:14:36.564Z,99331.52
2018-05-03T09:17:06.781Z,99327.45
2018-05-03T09:19:37.039Z,99322.52
2018-05-03T09:22:07.340Z,99329.16
2018-05-03T09:24:37.573Z,99334.34
2018-05-03T09:27:07.565Z,99329.05
2018-05-03T09:29:37.773Z,99323.23
2018-05-03T09:32:08.053Z,99320.98
2018-05-03T09:34:38.256Z,99319.38
2018-05-03T09:37:08.149Z,99319.88
2018-05-03T09:39:39.483Z,99323.34
2018-05-03T09:42:09.692Z,99314.41
2018-05-03T09:44:39.943Z,99322.37
2018-05-03T09:47:10.155Z,99326.84
2018-05-03T09:49:40.398Z,99323.04
2018-05-03T09:52:10.598Z,99320.20
2018-05-03T09:54:40.556Z,99322.21
2018-05-03T09:57:10.758Z,99323.16
2018-05-03T09:59:40.960Z,99326.33
2018-05-03T10:02:11.208Z,99323.34
2018-05-03T10:04:41.428Z,99331.63
2018-05-03T10:07:11.675Z,99330.11
2018-05-03T10:09:41.902Z,99331.13
2018-05-03T10:12:12.128Z,99330.86
2018-05-03T10:14:42.405Z,99340.79
2018-05-03T10:17:12.831Z,99336.98
2018-05-03T10:19:43.090Z,99338.94
2018-05-03T10:22:13.308Z,99340.57
2018-05-03T10:24:43.549Z,99335.09
2018-05-03T10:27:13.770Z,99336.88
2018-05-03T10:29:43.376Z,99339.05
2018-05-03T10:32:13.658Z,99336.50
2018-05-03T10:34:43.962Z,99336.26
2018-05-03T10:37:14.229Z,99334.34
2018-05-03T10:39:44.696Z,99335.68
2018-05-03T10:42:14.660Z,99340.72
2018-05-03T10:44:45.098Z,99340.08
2018-05-03T10:47:15.352Z,99339.50
2018-05-03T10:49:45.617Z,99338.30
2018-05-03T10:52:15.854Z,99341.09
2018-05-03T10:54:46.318Z,99343.52
2018-05-03T10:57:16.576Z,99340.76
2018-05-03T10:59:46.818Z,99341.02
2018-05-03T11:02:17.034Z,99336.08
2018-05-03T11:04:47.280Z,99337.51
2018-05-03T11:07:17.564Z,99339.47
2018-05-03T11:09:47.833Z,99331.63
2018-05-03T11:12:18.162Z,99332.65
2018-05-03T11:14:48.444Z,99328.88
2018-05-03T11:17:18.711Z,99333.13
2018-05-03T11:19:48.922Z,99324.06
2018-05-03T11:22:19.141Z,99327.98
2018-05-03T11:24:49.407Z,99331.88
2018-05-03T11:27:19.674Z,99335.91
2018-05-03T11:29:49.985Z,99335.45
2018-05-03T11:32:20.691Z,99336.83
2018-05-03T11:34:50.920Z,99335.73
2018-05-03T11:37:21.265Z,99332.78
2018-05-03T11:39:51.494Z,99329.48
2018-05-03T11:42:21.738Z,99335.89
2018-05-03T11:44:51.960Z,99332.12
2018-05-03T11:47:22.174Z,99333.67
2018-05-03T11:49:52.484Z,99328.34
2018-05-03T11:52:22.706Z,99332.73
2018-05-03T11:54:52.934Z,99332.08
2018-05-03T11:57:23.183Z,99335.97
2018-05-03T11:59:53.397Z,99343.07
2018-05-03T12:02:23.685Z,99342.88
2018-05-03T12:04:53.879Z,99347.06
2018-05-03T12:07:24.141Z,99341.29
2018-05-03T12:09:54.351Z,99338.76
2018-05-03T12:12:24.572Z,99338.79
2018-05-03T12:14:54.772Z,99330.50
2018-05-03T12:17:24.972Z,99338.59
2018-05-03T12:19:55.238Z,99337.02
2018-05-03T12:22:25.503Z,99338.66
2018-05-03T12:24:55.736Z,99333.64
2018-05-03T12:27:25.951Z,99338.11
2018-05-03T12:29:56.169Z,99332.33
2018-05-03T12:32:26.469Z,99322.58
2018-05-03T12:34:56.765Z,99328.38
2018-05-03T12:37:27.200Z,99328.08
2018-05-03T12:39:57.407Z,99336.08
2018-05-03T12:42:27.640Z,99328.70
2018-05-03T12:44:57.839Z,99320.86
2018-05-03T12:47:28.091Z,99326.91
2018-05-03T12:49:58.338Z,99323.84
2018-05-03T12:52:28.536Z,99322.17
2018-05-03T12:54:58.771Z,99320.27
2018-05-03T12:57:28.972Z,99317.97
2018-05-03T13:00:00.039Z,99324.64
2018-05-03T13:02:30.292Z,99314.54
2018-05-03T13:05:00.517Z,99312.90
2018-05-03T13:07:30.803Z,99321.25
2018-05-03T13:10:01.003Z,99317.73
2018-05-03T13:12:31.221Z,99329.11
2018-05-03T13:15:01.478Z,99321.24
2018-05-03T13:17:31.685Z,99323.48
2018-05-03T13:20:01.941Z,99311.27
2018-05-03T13:22:32.128Z,99322.01
2018-05-03T13:25:02.431Z,99319.31
2018-05-03T13:27:32.410Z,99316.68
2018-05-03T13:30:02.667Z,99320.06
2018-05-03T13:32:32.608Z,99320.61
2018-05-03T13:35:02.817Z,99325.22
2018-05-03T13:37:33.087Z,99329.73
2018-05-03T13:40:03.308Z,99331.11
2018-05-03T13:42:33.576Z,99332.43
2018-05-03T13:45:03.559Z,99335.66
2018-05-03T13:47:33.802Z,99333.41
2018-05-03T13:50:04.236Z,99335.37
2018-05-03T13:52:34.460Z,99337.36
2018-05-03T13:55:04.347Z,99348.27
2018-05-03T13:57:34.611Z,99335.42
2018-05-03T14:00:04.281Z,99338.86
2018-05-03T14:02:33.957Z,99338.27
2018-05-03T14:05:03.907Z,99340.89
2018-05-03T14:07:33.887Z,99345.31
2018-05-03T14:10:04.044Z,99352.05
2018-05-03T14:12:33.727Z,99338.67
2018-05-03T14:15:03.387Z,99347.67
2018-05-03T14:17:33.665Z,99344.86
2018-05-03T14:20:03.101Z,99342.85
2018-05-03T14:22:33.331Z,99346.61
2018-05-03T14:25:02.975Z,99348.78
2018-05-03T14:27:32.662Z,99348.73
2018-05-03T14:30:02.302Z,99353.41
2018-05-03T14:32:31.969Z,99350.44
2018-05-03T14:35:01.597Z,99355.13
2018-05-03T14:37:30.984Z,99347.31
2018-05-03T14:40:00.672Z,99345.98
2018-05-03T14:42:30.313Z,99351.18
2018-05-03T14:44:59.952Z,99347.64
2018-05-03T14:47:29.582Z,99373.30
2018-05-03T14:49:59.219Z,99360.72
2018-05-03T14:52:28.904Z,99352.30
2018-05-03T14:54:58.541Z,99343.27
2018-05-03T14:57:28.194Z,99346.45
2018-05-03T14:59:57.836Z,99360.53
2018-05-03T15:02:27.473Z,99411.85
2018-05-03T15:04:57.132Z,99441.96
2018-05-03T15:07:26.776Z,99457.92
2018-05-03T15:09:56.400Z,99478.03
2018-05-03T15:12:26.031Z,99509.86
2018-05-03T15:14:55.377Z,99538.16
2018-05-03T15:17:25.076Z,99509.97
2018-05-03T15:19:54.716Z,99480.78
2018-05-03T15:22:24.071Z,99444.33
2018-05-03T15:24:53.700Z,99458.15
2018-05-03T15:27:23.337Z,99467.47
2018-05-03T15:29:53.025Z,99477.48
2018-05-03T15:32:22.677Z,99475.75
2018-05-03T15:34:54.012Z,99476.48
2018-05-03T15:37:23.414Z,99469.09
2018-05-03T15:39:53.064Z,99472.79
2018-05-03T15:42:22.687Z,99478.53
2018-05-03T15:44:52.306Z,99481.00
2018-05-03T15:47:22.021Z,99481.02
2018-05-03T15:49:51.670Z,99482.13
2018-05-03T15:52:21.303Z,99480.39
2018-05-03T15:54:50.946Z,99480.05
2018-05-03T15:57:20.578Z,99479.11
2018-05-03T15:59:50.019Z,99489.06
2018-05-03T16:02:19.660Z,99494.87
2018-05-03T16:04:49.310Z,99505.48
2018-05-03T16:07:18.958Z,99517.70
2018-05-03T16:09:48.582Z,99515.17
2018-05-03T16:12:18.263Z,99515.60
2018-05-03T16:14:47.972Z,99524.70
2018-05-03T16:17:17.638Z,99530.47
2018-05-03T16:19:47.280Z,99535.81
2018-05-03T16:22:16.930Z,99537.75
2018-05-03T16:24:46.659Z,99536.09
2018-05-03T16:27:16.109Z,99540.45
2018-05-03T16:29:45.982Z,99549.47
2018-05-03T16:32:15.620Z,99546.42
2018-05-03T16:34:45.301Z,99555.20
2018-05-03T16:37:14.976Z,99558.17
2018-05-03T16:39:44.619Z,99554.73
2018-05-03T16:42:14.281Z,99557.34
2018-05-03T16:44:43.913Z,99559.70
2018-05-03T16:47:13.557Z,99563.09
2018-05-03T16:49:43.230Z,99557.17
2018-05-03T16:52:12.877Z,99562.91
2018-05-03T16:54:42.506Z,99566.30
2018-05-03T16:57:12.149Z,99572.52
2018-05-03T16:59:41.786Z,99583.38
2018-05-03T17:02:11.486Z,99593.69
2018-05-03T17:04:41.177Z,99594.47
2018-05-03T17:07:10.821Z,99590.56
2018-05-03T17:09:40.461Z,99596.66
2018-05-03T17:12:10.097Z,99600.16
2018-05-03T17:14:39.866Z,99601.80
2018-05-03T17:17:09.488Z,99602.59
2018-05-03T17:19:39.153Z,99602.88
2018-05-03T17:22:08.797Z,99607.47
2018-05-03T17:24:38.457Z,99617.36
2018-05-03T17:27:08.130Z,99613.84
2018-05-03T17:29:37.750Z,99621.98
2018-05-03T17:32:07.392Z,99621.03
2018-05-03T17:34:37.043Z,99622.25
2018-05-03T17:37:06.698Z,99628.89
2018-05-03T17:39:36.139Z,99627.95
2018-05-03T17:42:05.642Z,99636.88
2018-05-03T17:44:35.292Z,99638.25
2018-05-03T17:47:04.944Z,99640.69
2018-05-03T17:49:34.576Z,99640.67
2018-05-03T17:52:04.271Z,99640.95
2018-05-03T17:54:33.912Z,99642.95
2018-05-03T17:57:03.563Z,99640.66
2018-05-03T17:59:33.214Z,99646.35
2018-05-03T18:02:02.861Z,99656.78
2018-05-03T18:04:32.542Z,99656.32
2018-05-03T18:07:02.196Z,99661.31
2018-05-03T18:09:31.837Z,99669.81
2018-05-03T18:12:01.504Z,99671.41
2018-05-03T18:14:31.144Z,99675.04
2018-05-03T18:17:00.822Z,99677.58
2018-05-03T18:19:30.529Z,99682.95
2018-05-03T18:22:00.199Z,99680.52
2018-05-03T18:24:29.885Z,99684.62
2018-05-03T18:26:59.529Z,99690.16
2018-05-03T18:29:28.981Z,99692.55
2018-05-03T18:31:58.637Z,99688.23
2018-05-03T18:34:28.288Z,99686.42
2018-05-03T18:36:57.938Z,99687.58
2018-05-03T18:39:27.558Z,99691.62
2018-05-03T18:41:57.223Z,99695.05
2018-05-03T18:44:26.871Z,99694.13
2018-05-03T18:46:56.375Z,99701.48
2018-05-03T18:49:26.026Z,99707.62
2018-05-03T18:51:55.860Z,99707.95
2018-05-03T18:54:25.318Z,99711.55
2018-05-03T18:56:54.942Z,99714.72
2018-05-03T18:59:24.601Z,99716.73
2018-05-03T19:01:54.218Z,99722.89
2018-05-03T19:04:23.862Z,99734.46
2018-05-03T19:06:53.535Z,99746.09
2018-05-03T19:09:23.172Z,99757.41
2018-05-03T19:11:52.844Z,99772.78
2018-05-03T19:14:22.711Z,99783.29
2018-05-03T19:16:52.338Z,99795.27
2018-05-03T19:19:22.015Z,99797.52
2018-05-03T19:21:51.665Z,99808.25
2018-05-03T19:24:21.066Z,99807.56
2018-05-03T19:26:50.715Z,99815.29
2018-05-03T19:29:20.442Z,99820.84
2018-05-03T19:31:50.264Z,99820.42
2018-05-03T19:34:19.920Z,99824.55
2018-05-03T19:36:49.599Z,99835.13
2018-05-03T19:39:19.237Z,99846.84
2018-05-03T19:41:48.870Z,99846.59
2018-05-03T19:44:18.491Z,99845.25
2018-05-03T19:46:48.114Z,99843.05
2018-05-03T19:49:17.743Z,99840.89
2018-05-03T19:51:47.384Z,99846.05
2018-05-03T19:54:17.056Z,99849.72
2018-05-03T19:56:46.688Z,99849.78
2018-05-03T19:59:16.378Z,99851.30
2018-05-03T20:01:46.049Z,99854.12
2018-05-03T20:04:15.689Z,99864.15
2018-05-03T20:06:45.318Z,99860.77
2018-05-03T20:09:14.958Z,99858.75
2018-05-03T20:11:44.583Z,99850.31
2018-05-03T20:14:14.248Z,99850.45
2018-05-03T20:16:43.931Z,99859.89
2018-05-03T20:19:13.563Z,99858.16
2018-05-03T20:21:43.195Z,99855.43
2018-05-03T20:24:12.837Z,99855.46
2018-05-03T20:26:42.483Z,99865.18
2018-05-03T20:29:12.136Z,99860.73
2018-05-03T20:31:41.775Z,99858.30
2018-05-03T20:34:11.455Z,99846.23
2018-05-03T20:36:41.098Z,99843.57
2018-05-03T20:39:10.739Z,99842.73
2018-05-03T20:41:40.376Z,99856.56
2018-05-03T20:44:10.000Z,99868.83
2018-05-03T20:46:39.645Z,99875.14
2018-05-03T20:49:09.279Z,99876.72
2018-05-03T20:51:38.902Z,99881.45
2018-05-03T20:54:08.572Z,99885.77
2018-05-03T20:56:39.052Z,99897.84
2018-05-03T20:59:08.868Z,99908.87
2018-05-03T21:01:38.530Z,99911.28
2018-05-03T21:04:08.156Z,99918.59
2018-05-03T21:06:37.808Z,99930.30
2018-05-03T21:09:07.435Z,99946.53
2018-05-03T21:11:36.902Z,99956.66
2018-05-03T21:14:06.570Z,99960.05
2018-05-03T21:16:36.236Z,99960.85
2018-05-03T21:19:05.887Z,99968.41
2018-05-03T21:21:35.530Z,99988.47
2018-05-03T21:24:05.159Z,99997.06
2018-05-03T21:26:34.845Z,100002.06
2018-05-03T21:29:04.475Z,100005.66
2018-05-03T21:31:34.135Z,100014.58
2018-05-03T21:34:03.801Z,100026.36
2018-05-03T21:36:33.225Z,100039.64
2018-05-03T21:39:02.861Z,100050.47
2018-05-03T21:41:32.520Z,100050.91
2018-05-03T21:44:02.178Z,100052.01
2018-05-03T21:46:31.876Z,100048.62
2018-05-03T21:49:01.521Z,100045.75
2018-05-03T21:51:31.220Z,100053.53
2018-05-03T21:54:00.859Z,100060.10
2018-05-03T21:56:30.488Z,100058.41
2018-05-03T21:59:00.138Z,100045.66
2018-05-03T22:01:29.805Z,100042.40
2018-05-03T22:03:59.341Z,100046.70
2018-05-03T22:06:29.142Z,100041.97
2018-05-03T22:08:58.791Z,100044.31
2018-05-03T22:11:28.441Z,100044.63
2018-05-03T22:13:58.121Z,100044.72
2018-05-03T22:16:27.674Z,100038.44
2018-05-03T22:18:57.315Z,100038.91
2018-05-03T22:21:26.996Z,100033.37
2018-05-03T22:23:56.633Z,100038.95
2018-05-03T22:26:26.287Z,100038.77
2018-05-03T22:28:59.028Z,100037.27
2018-05-03T22:31:32.154Z,100042.72
2018-05-03T22:34:01.789Z,100046.49
2018-05-03T22:36:31.441Z,100037.19
2018-05-03T22:39:01.116Z,100034.06
2018-05-03T22:41:30.475Z,100032.11
2018-05-03T22:44:00.106Z,100035.14
2018-05-03T22:46:29.747Z,100026.86
2018-05-03T22:48:59.392Z,100031.80
2018-05-03T22:51:29.029Z,100030.28
2018-05-03T22:53:58.668Z,100032.45
2018-05-03T22:56:28.345Z,100025.22
2018-05-03T22:58:57.983Z,100017.55
2018-05-03T23:01:28.624Z,100009.59
2018-05-03T23:03:58.254Z,99998.16
2018-05-03T23:06:27.878Z,99994.48
2018-05-03T23:08:57.509Z,99988.77
2018-05-03T23:11:27.167Z,99981.91
2018-05-03T23:13:56.626Z,99972.69
2018-05-03T23:16:26.249Z,99965.09
2018-05-03T23:18:55.902Z,99969.77
2018-05-03T23:21:25.519Z,99956.72
2018-05-03T23:23:55.160Z,99965.39
2018-05-03T23:26:24.790Z,99948.91
2018-05-03T23:28:54.424Z,99955.98
2018-05-03T23:31:24.100Z,99951.05
2018-05-03T23:33:53.734Z,99956.16
2018-05-03T23:36:23.999Z,99959.54
2018-05-03T23:38:53.632Z,99952.85
2018-05-03T23:41:23.271Z,99969.02
2018-05-03T23:43:52.915Z,99959.22
2018-05-03T23:46:22.545Z,99959.61
2018-05-03T23:48:52.215Z,99951.20
2018-05-03T23:51:21.840Z,99947.16
2018-05-03T23:53:51.479Z,99941.00
2018-05-03T23:56:21.120Z,99928.73
2018-05-03T23:58:50.755Z,99935.28
